Pagrindinis puslapis
METAR-TAF:

METAR-TAF

Oro uostai :

Kaskavelas, Parana, Brazilija

platuma: 25-00-08S, ilguma: 53-30-07W, Aukštis: 754 m

Dabartinis oras

Ataskaita buvo paskelbta 9 valandos ir 54 minutes, ne 23:00 UTC
Vėjas 4 kt iš Rytų/Pietryčių
Temperatūra 28°C
Drėgmė 66%
Slėgis 1015 hPa
Matomumas 10 km arba daugiau
nėra debesų žemiau 1500 m ir nėra kamuolinių lietaus debesų

METAR: SBCA 192300Z 11004KT CAVOK 28/21 Q1015

Laikas: 05:54 (08:54 UTC)


TAF: trūkstamas

Orai ataskaitas ir orų prognozės (METAR, TAF).

turimą stotys yra geltonos ir raudonos taškus žemėlapyje.

Perkelti pele per norėdami pamatyti stoties vardą.

Tada spustelėkite, norėdami matyti oro stebėjimo ir prognozės.

Norėdami pakeisti žemėlapį: spustelėkite ant žalios mygtukų su juodo kryžiaus žemyn,; žalią mygtuką su brūkšneliu, jei norite nutolinti; arba žalių rodyklių gretimoms žemėlapius.


METAR-TAF: